createdAt,value
2022-10-04T00:02:22.351Z,81.23
2022-10-04T00:05:08.136Z,82.47
2022-10-04T00:07:40.435Z,81.84
2022-10-04T00:10:42.127Z,82.28
2022-10-04T00:13:19.465Z,82.91
2022-10-04T00:15:50.344Z,84.26
2022-10-04T00:18:45.347Z,82.62
2022-10-04T00:21:11.947Z,83.83
2022-10-04T00:23:38.506Z,84.26
2022-10-04T00:26:35.354Z,85.01
2022-10-04T00:29:37.547Z,86.10
2022-10-04T00:32:10.010Z,84.02
2022-10-04T00:34:36.510Z,85.31
2022-10-04T00:37:03.884Z,84.52
2022-10-04T00:39:33.458Z,86.28
2022-10-04T00:42:25.904Z,86.50
2022-10-04T00:45:02.667Z,87.52
2022-10-04T00:47:31.249Z,87.41
2022-10-04T00:50:07.763Z,87.75
2022-10-04T00:52:42.651Z,87.17
2022-10-04T00:55:20.294Z,88.41
2022-10-04T00:57:51.294Z,87.58
2022-10-04T01:00:19.722Z,87.22
2022-10-04T01:03:12.381Z,86.50
2022-10-04T01:05:47.238Z,87.08
2022-10-04T01:08:18.970Z,88.17
2022-10-04T01:11:03.499Z,88.00
2022-10-04T01:13:37.566Z,89.83
2022-10-04T01:16:16.667Z,89.43
2022-10-04T01:18:43.626Z,89.78
2022-10-04T01:21:19.157Z,90.60
2022-10-04T01:23:48.634Z,89.36
2022-10-04T01:26:27.543Z,89.40
2022-10-04T01:28:54.490Z,89.70
2022-10-04T01:31:21.665Z,90.74
2022-10-04T01:33:48.795Z,91.05
2022-10-04T01:36:15.561Z,90.47
2022-10-04T01:38:42.380Z,91.43
2022-10-04T01:41:12.294Z,92.56
2022-10-04T01:43:44.170Z,92.11
2022-10-04T01:46:27.777Z,92.10
2022-10-04T01:48:57.399Z,92.58
2022-10-04T01:51:29.700Z,92.36
2022-10-04T01:54:07.372Z,92.72
2022-10-04T01:56:45.919Z,90.80
2022-10-04T01:59:23.823Z,92.92
2022-10-04T02:02:07.327Z,92.36
2022-10-04T02:04:38.264Z,92.29
2022-10-04T02:07:12.768Z,91.39
2022-10-04T02:09:43.734Z,91.75
2022-10-04T02:12:15.833Z,93.31
2022-10-04T02:14:52.489Z,90.96
2022-10-04T02:17:23.810Z,91.99
2022-10-04T02:19:50.650Z,91.51
2022-10-04T02:22:18.799Z,92.08
2022-10-04T02:24:48.096Z,91.66
2022-10-04T02:27:14.916Z,91.73
2022-10-04T02:29:41.901Z,92.58
2022-10-04T02:32:10.143Z,91.51
2022-10-04T02:34:37.619Z,92.64
2022-10-04T02:37:05.767Z,90.44
2022-10-04T02:39:37.558Z,92.33
2022-10-04T02:42:13.064Z,92.03
2022-10-04T02:44:51.992Z,94.43
2022-10-04T02:47:26.102Z,93.40
2022-10-04T02:50:00.932Z,94.88
2022-10-04T02:52:46.792Z,93.30
2022-10-04T02:55:15.920Z,94.29
2022-10-04T02:57:43.984Z,92.27
2022-10-04T03:00:16.847Z,94.07
2022-10-04T03:03:09.478Z,93.12
2022-10-04T03:05:38.031Z,94.74
2022-10-04T03:08:05.991Z,94.53
2022-10-04T03:10:33.290Z,94.44
2022-10-04T03:12:59.919Z,93.82
2022-10-04T03:15:26.539Z,92.83
2022-10-04T03:17:53.481Z,93.17
2022-10-04T03:20:20.544Z,92.57
2022-10-04T03:22:52.753Z,94.90
2022-10-04T03:25:26.068Z,93.97
2022-10-04T03:27:52.783Z,93.25
2022-10-04T03:30:19.595Z,93.26
2022-10-04T03:32:47.609Z,95.00
2022-10-04T03:35:30.167Z,95.89
2022-10-04T03:37:58.963Z,94.79
2022-10-04T03:40:30.512Z,93.05
2022-10-04T03:42:59.654Z,92.27
2022-10-04T03:45:28.269Z,90.51
2022-10-04T03:48:03.354Z,90.47
2022-10-04T03:50:38.411Z,94.05
2022-10-04T03:53:31.628Z,91.98
2022-10-04T03:56:04.056Z,95.72
2022-10-04T03:58:32.036Z,97.93
2022-10-04T04:01:06.153Z,98.30
2022-10-04T04:03:53.530Z,99.17
2022-10-04T04:06:22.429Z,96.98
2022-10-04T04:08:53.295Z,98.59
2022-10-04T04:11:28.131Z,97.06
2022-10-04T04:14:08.273Z,97.59
2022-10-04T04:16:37.058Z,96.22
2022-10-04T04:19:13.113Z,97.51
2022-10-04T04:21:41.602Z,98.31
2022-10-04T04:24:19.730Z,98.10
2022-10-04T04:26:51.953Z,98.82
2022-10-04T04:29:32.646Z,98.40
2022-10-04T04:32:06.222Z,98.72
2022-10-04T04:34:35.520Z,98.56
2022-10-04T04:37:04.413Z,96.53
2022-10-04T04:39:32.476Z,97.64
2022-10-04T04:42:03.017Z,98.45
2022-10-04T04:44:29.761Z,95.35
2022-10-04T04:46:56.438Z,99.43
2022-10-04T04:49:23.527Z,99.27
2022-10-04T04:51:52.177Z,97.33
2022-10-04T04:54:23.187Z,97.63
2022-10-04T04:56:52.886Z,98.05
2022-10-04T04:59:22.781Z,100.00
2022-10-04T05:01:49.969Z,99.60
2022-10-04T05:04:22.579Z,100.00
2022-10-04T05:07:05.198Z,97.21
2022-10-04T05:09:31.721Z,99.05
2022-10-04T05:12:05.099Z,99.73
2022-10-04T05:14:31.695Z,98.29
2022-10-04T05:16:58.307Z,98.82
2022-10-04T05:19:29.767Z,96.98
2022-10-04T05:21:59.453Z,96.17
2022-10-04T05:24:37.151Z,96.04
2022-10-04T05:27:15.403Z,96.92
2022-10-04T05:29:58.780Z,95.76
2022-10-04T05:33:03.750Z,94.52
2022-10-04T05:36:10.704Z,93.59
2022-10-04T05:38:49.196Z,96.62
2022-10-04T05:41:22.204Z,94.10
2022-10-04T05:43:50.420Z,96.38
2022-10-04T05:46:29.175Z,95.54
2022-10-04T05:49:19.161Z,94.61
2022-10-04T05:52:05.680Z,93.21
2022-10-04T05:54:34.788Z,93.98
2022-10-04T05:57:01.282Z,94.06
2022-10-04T05:59:58.479Z,93.04
2022-10-04T06:02:50.165Z,94.22
2022-10-04T06:05:28.900Z,94.21
2022-10-04T06:08:09.719Z,91.34
2022-10-04T06:11:13.420Z,91.65
2022-10-04T06:14:01.808Z,93.75
2022-10-04T06:16:28.416Z,93.09
2022-10-04T06:19:00.893Z,92.33
2022-10-04T06:21:43.893Z,93.70
2022-10-04T06:24:16.154Z,92.17
2022-10-04T06:26:53.213Z,91.85
2022-10-04T06:29:33.182Z,91.37
2022-10-04T06:32:28.731Z,92.72
2022-10-04T06:35:09.576Z,93.56
2022-10-04T06:38:23.894Z,93.21
2022-10-04T06:41:21.412Z,94.32
2022-10-04T06:44:02.995Z,92.99
2022-10-04T06:46:41.653Z,93.69
2022-10-04T06:49:42.221Z,92.55
2022-10-04T06:52:17.362Z,92.70
2022-10-04T06:54:56.146Z,90.84
2022-10-04T06:57:31.883Z,91.05
2022-10-04T06:59:58.417Z,90.33
2022-10-04T07:02:46.229Z,91.14
2022-10-04T07:05:18.583Z,91.91
2022-10-04T07:07:50.117Z,91.06
2022-10-04T07:10:28.159Z,92.38
2022-10-04T07:13:03.529Z,90.58
2022-10-04T07:15:49.343Z,91.34
2022-10-04T07:18:42.679Z,90.85
2022-10-04T07:21:14.612Z,91.82
2022-10-04T07:23:50.670Z,90.05
2022-10-04T07:26:48.719Z,90.57
2022-10-04T07:29:21.276Z,91.28
2022-10-04T07:32:05.896Z,92.05
2022-10-04T07:34:44.491Z,91.78
2022-10-04T07:37:13.509Z,90.05
2022-10-04T07:40:00.404Z,91.72
2022-10-04T07:42:38.253Z,90.85
2022-10-04T07:45:10.992Z,88.95
2022-10-04T07:47:37.939Z,89.10
2022-10-04T07:50:26.921Z,89.66
2022-10-04T07:53:09.794Z,88.16
2022-10-04T07:55:48.514Z,88.84
2022-10-04T07:58:45.572Z,86.80
2022-10-04T08:01:46.308Z,86.78
2022-10-04T08:04:15.831Z,85.32
2022-10-04T08:06:59.657Z,84.86
2022-10-04T08:09:42.707Z,83.64
2022-10-04T08:12:18.332Z,83.81
2022-10-04T08:15:13.987Z,82.41
2022-10-04T08:18:02.180Z,81.07
2022-10-04T08:20:48.245Z,81.55
2022-10-04T08:23:45.750Z,80.99
2022-10-04T08:26:21.465Z,80.69
2022-10-04T08:29:14.234Z,79.09
2022-10-04T08:31:50.336Z,81.36
2022-10-04T08:34:50.595Z,80.04
2022-10-04T08:37:39.346Z,81.66
2022-10-04T08:40:27.678Z,81.61
2022-10-04T08:43:03.395Z,80.62
2022-10-04T08:45:57.939Z,79.74
2022-10-04T08:48:43.007Z,80.21
2022-10-04T08:51:24.800Z,78.94
2022-10-04T08:54:19.244Z,79.89
2022-10-04T08:57:15.728Z,80.24
2022-10-04T09:00:01.035Z,79.30
2022-10-04T09:03:01.598Z,79.05
2022-10-04T09:05:46.640Z,79.74
2022-10-04T09:08:31.499Z,80.36
2022-10-04T09:11:09.943Z,79.46
2022-10-04T09:13:51.708Z,78.94
2022-10-04T09:16:24.162Z,77.87
2022-10-04T09:19:30.123Z,79.41
2022-10-04T09:21:56.629Z,78.09
2022-10-04T09:24:44.925Z,77.12
2022-10-04T09:27:53.569Z,76.55
2022-10-04T09:30:17.397Z,74.89
2022-10-04T09:32:50.061Z,72.04
2022-10-04T09:35:36.543Z,72.33
2022-10-04T09:38:45.064Z,72.35
2022-10-04T09:41:14.460Z,70.49
2022-10-04T09:44:24.462Z,71.76
2022-10-04T09:47:10.751Z,71.58
2022-10-04T09:50:06.973Z,70.02
2022-10-04T09:52:57.336Z,68.46
2022-10-04T09:55:41.099Z,67.52
2022-10-04T09:58:22.711Z,69.04
2022-10-04T10:01:03.463Z,67.70
2022-10-04T10:03:42.047Z,67.36
2022-10-04T10:06:30.554Z,65.34
2022-10-04T10:09:11.375Z,66.06
2022-10-04T10:12:15.510Z,68.38
2022-10-04T10:14:42.021Z,68.32
2022-10-04T10:17:17.266Z,70.32
2022-10-04T10:20:02.536Z,68.69
2022-10-04T10:22:53.366Z,68.93
2022-10-04T10:25:38.713Z,69.39
2022-10-04T10:28:23.677Z,69.46
2022-10-04T10:31:23.280Z,68.50
2022-10-04T10:34:30.669Z,69.45
2022-10-04T10:37:10.345Z,66.41
2022-10-04T10:39:43.045Z,65.80
2022-10-04T10:42:31.304Z,67.81
2022-10-04T10:45:16.467Z,67.63
2022-10-04T10:47:43.031Z,70.20
2022-10-04T10:50:15.769Z,70.15
2022-10-04T10:53:16.278Z,69.98
2022-10-04T10:56:16.966Z,72.13
2022-10-04T10:59:18.642Z,68.75
2022-10-04T11:01:51.252Z,64.79
2022-10-04T11:04:55.067Z,64.89
2022-10-04T11:07:52.048Z,64.93
2022-10-04T11:10:51.173Z,64.72
2022-10-04T11:13:43.427Z,64.22
2022-10-04T11:16:54.110Z,62.75
2022-10-04T11:19:23.674Z,60.34
2022-10-04T11:22:20.944Z,61.33
2022-10-04T11:24:56.437Z,60.59
2022-10-04T11:27:34.837Z,60.91
2022-10-04T11:30:15.584Z,58.92
2022-10-04T11:33:03.610Z,60.85
2022-10-04T11:35:48.710Z,60.21
2022-10-04T11:38:27.917Z,60.88
2022-10-04T11:41:26.750Z,62.54
2022-10-04T11:44:28.049Z,62.04
2022-10-04T11:47:41.912Z,66.79
2022-10-04T11:50:39.111Z,69.42
2022-10-04T11:53:46.707Z,74.35
2022-10-04T11:56:51.163Z,70.25
2022-10-04T11:59:23.464Z,68.49
2022-10-04T12:02:08.832Z,67.71
2022-10-04T12:04:38.493Z,65.93
2022-10-04T12:07:22.997Z,63.94
2022-10-04T12:10:01.471Z,61.64
2022-10-04T12:12:52.967Z,61.14
2022-10-04T12:15:31.600Z,63.79
2022-10-04T12:18:40.076Z,63.21
2022-10-04T12:21:15.449Z,64.95
2022-10-04T12:24:06.184Z,65.15
2022-10-04T12:26:55.765Z,63.76
2022-10-04T12:29:25.483Z,62.22
2022-10-04T12:32:00.151Z,63.57
2022-10-04T12:34:38.830Z,63.59
2022-10-04T12:37:18.156Z,62.75
2022-10-04T12:40:09.128Z,61.53
2022-10-04T12:43:00.078Z,60.29
2022-10-04T12:45:57.963Z,61.88
2022-10-04T12:48:27.395Z,64.08
2022-10-04T12:51:28.821Z,64.21
2022-10-04T12:54:20.842Z,63.24
2022-10-04T12:57:16.430Z,64.77
2022-10-04T12:59:54.745Z,61.96
2022-10-04T13:02:27.093Z,60.36
2022-10-04T13:05:19.706Z,61.91
2022-10-04T13:08:11.268Z,62.56
2022-10-04T13:10:56.634Z,61.23
2022-10-04T13:13:23.160Z,60.90
2022-10-04T13:19:16.838Z,60.84
2022-10-04T13:21:43.736Z,61.36
2022-10-04T13:24:28.067Z,59.65
2022-10-04T13:27:05.529Z,58.76
2022-10-04T13:29:53.682Z,59.92
2022-10-04T13:32:29.622Z,59.08
2022-10-04T13:35:18.760Z,60.23
2022-10-04T13:38:26.692Z,56.85
2022-10-04T13:41:17.799Z,57.21
2022-10-04T13:44:42.808Z,58.15
2022-10-04T13:47:14.982Z,55.31
2022-10-04T13:49:53.375Z,57.09
2022-10-04T13:52:57.253Z,56.39
2022-10-04T13:55:33.128Z,55.09
2022-10-04T13:58:15.756Z,55.11
2022-10-04T14:01:00.727Z,55.66
2022-10-04T14:04:03.502Z,55.17
2022-10-04T14:06:32.839Z,55.92
2022-10-04T14:08:59.354Z,54.67
2022-10-04T14:11:50.634Z,52.28
2022-10-04T14:14:31.241Z,52.61
2022-10-04T14:17:52.059Z,52.96
2022-10-04T14:20:24.373Z,51.48
2022-10-04T14:23:09.677Z,54.43
2022-10-04T14:25:55.114Z,54.05
2022-10-04T14:28:36.664Z,54.29
2022-10-04T14:31:12.566Z,55.38
2022-10-04T14:34:20.388Z,54.03
2022-10-04T14:37:09.255Z,55.21
2022-10-04T14:39:38.820Z,55.24
2022-10-04T14:42:28.683Z,55.02
2022-10-04T14:45:14.179Z,56.09
2022-10-04T14:47:59.169Z,55.34
2022-10-04T14:50:34.496Z,55.41
2022-10-04T14:53:19.328Z,59.12
2022-10-04T14:56:13.918Z,59.61
2022-10-04T14:58:49.649Z,59.76
2022-10-04T15:01:27.483Z,60.84
2022-10-04T15:04:23.034Z,59.80
2022-10-04T15:06:55.563Z,60.49
2022-10-04T15:09:55.836Z,60.08
2022-10-04T15:12:51.844Z,60.44
2022-10-04T15:15:22.887Z,60.22
2022-10-04T15:17:52.427Z,58.26
2022-10-04T15:20:28.390Z,58.13
2022-10-04T15:23:32.899Z,58.53
2022-10-04T15:26:18.025Z,58.06
2022-10-04T15:28:50.444Z,55.85
2022-10-04T15:31:50.440Z,58.51
2022-10-04T15:34:25.533Z,57.65
2022-10-04T15:37:13.675Z,58.32
2022-10-04T15:39:40.280Z,57.63
2022-10-04T15:42:21.629Z,59.31
2022-10-04T15:45:15.679Z,60.19
2022-10-04T15:48:06.685Z,59.26
2022-10-04T15:51:05.487Z,60.40
2022-10-04T15:53:50.075Z,60.35
2022-10-04T15:56:41.585Z,61.02
2022-10-04T15:59:35.061Z,63.04
2022-10-04T16:02:07.712Z,61.80
2022-10-04T16:04:44.001Z,61.76
2022-10-04T16:07:31.722Z,63.43
2022-10-04T16:10:20.072Z,64.67
2022-10-04T16:12:46.634Z,64.16
2022-10-04T16:15:40.535Z,65.71
2022-10-04T16:18:37.544Z,64.16
2022-10-04T16:21:10.297Z,66.73
2022-10-04T16:23:38.365Z,65.50
2022-10-04T16:26:17.335Z,67.37
2022-10-04T16:29:31.533Z,67.66
2022-10-04T16:32:19.963Z,66.84
2022-10-04T16:34:47.672Z,67.09
2022-10-04T16:37:53.329Z,67.38
2022-10-04T16:40:32.630Z,67.77
2022-10-04T16:43:27.022Z,66.44
2022-10-04T16:45:53.597Z,69.00
2022-10-04T16:48:26.347Z,71.62
2022-10-04T16:51:02.824Z,71.63
2022-10-04T16:53:59.786Z,73.13
2022-10-04T16:56:31.647Z,73.13
2022-10-04T16:59:13.367Z,72.40
2022-10-04T17:01:39.889Z,72.50
2022-10-04T17:04:30.930Z,73.27
2022-10-04T17:07:00.429Z,72.14
2022-10-04T17:09:47.051Z,72.23
2022-10-04T17:12:51.354Z,72.95
2022-10-04T17:15:38.215Z,73.84
2022-10-04T17:18:31.674Z,74.55
2022-10-04T17:21:25.623Z,73.35
2022-10-04T17:24:08.211Z,73.96
2022-10-04T17:27:19.844Z,73.15
2022-10-04T17:30:17.302Z,73.11
2022-10-04T17:32:46.623Z,72.63
2022-10-04T17:35:34.932Z,71.91
2022-10-04T17:38:10.365Z,72.36
2022-10-04T17:40:59.855Z,72.30
2022-10-04T17:43:42.747Z,72.26
2022-10-04T17:46:39.219Z,73.93
2022-10-04T17:49:28.252Z,74.17
2022-10-04T17:52:04.939Z,74.67
2022-10-04T17:54:34.595Z,75.34
2022-10-04T17:57:04.082Z,75.25
2022-10-04T17:59:40.733Z,74.17
2022-10-04T18:02:42.622Z,73.18
2022-10-04T18:05:20.215Z,74.11
2022-10-04T18:08:11.688Z,74.35
2022-10-04T18:10:48.235Z,74.83
2022-10-04T18:13:26.067Z,77.07
2022-10-04T18:16:19.086Z,76.07
2022-10-04T18:18:46.358Z,75.90
2022-10-04T18:21:15.884Z,75.93
2022-10-04T18:24:00.842Z,76.75
2022-10-04T18:26:33.046Z,76.95
2022-10-04T18:29:01.418Z,77.05
2022-10-04T18:31:38.688Z,76.25
2022-10-04T18:34:14.355Z,76.87
2022-10-04T18:37:04.336Z,75.96
2022-10-04T18:39:33.737Z,76.93
2022-10-04T18:42:24.551Z,77.21
2022-10-04T18:44:59.689Z,76.47
2022-10-04T18:47:35.370Z,76.88
2022-10-04T18:50:22.426Z,76.90
2022-10-04T18:53:28.366Z,77.70
2022-10-04T18:56:08.625Z,76.77
2022-10-04T18:58:53.277Z,77.41
2022-10-04T19:02:12.581Z,79.03
2022-10-04T19:05:00.581Z,77.99
2022-10-04T19:07:52.721Z,77.33
2022-10-04T19:10:40.847Z,77.39
2022-10-04T19:13:13.181Z,78.17
2022-10-04T19:15:41.974Z,78.06
2022-10-04T19:18:33.282Z,78.41
2022-10-04T19:21:26.228Z,78.40
2022-10-04T19:24:40.987Z,77.75
2022-10-04T19:27:20.434Z,79.03
2022-10-04T19:30:12.587Z,79.23
2022-10-04T19:32:59.355Z,79.30
2022-10-04T19:35:49.825Z,80.07
2022-10-04T19:38:28.560Z,80.02
2022-10-04T19:41:04.383Z,79.29
2022-10-04T19:43:32.020Z,80.49
2022-10-04T19:46:32.571Z,80.82
2022-10-04T19:48:59.156Z,79.48
2022-10-04T19:51:31.157Z,79.21
2022-10-04T19:54:15.640Z,80.09
2022-10-04T19:56:47.483Z,80.67
2022-10-04T19:59:17.040Z,80.84
2022-10-04T20:01:43.678Z,80.73
2022-10-04T20:04:15.423Z,81.01
2022-10-04T20:06:53.176Z,79.62
2022-10-04T20:09:31.990Z,81.16
2022-10-04T20:11:59.658Z,82.23
2022-10-04T20:14:26.184Z,81.57
2022-10-04T20:16:52.807Z,81.80
2022-10-04T20:19:21.778Z,82.60
2022-10-04T20:21:49.704Z,83.41
2022-10-04T20:24:18.843Z,83.73
2022-10-04T20:26:50.684Z,85.26
2022-10-04T20:29:38.063Z,85.37
2022-10-04T20:32:05.777Z,84.40
2022-10-04T20:34:50.592Z,84.00
2022-10-04T20:37:17.238Z,85.05
2022-10-04T20:39:43.746Z,85.92
2022-10-04T20:42:25.320Z,86.08
2022-10-04T20:45:06.143Z,85.41
2022-10-04T20:47:47.998Z,85.30
2022-10-04T20:50:25.839Z,85.86
2022-10-04T20:52:55.712Z,84.64
2022-10-04T20:55:24.579Z,84.93
2022-10-04T20:57:51.232Z,84.16
2022-10-04T21:00:20.403Z,84.10
2022-10-04T21:02:47.327Z,83.88
2022-10-04T21:05:24.503Z,84.06
2022-10-04T21:08:24.367Z,83.91
2022-10-04T21:11:05.890Z,84.25
2022-10-04T21:13:40.408Z,84.62
2022-10-04T21:16:06.999Z,85.51
2022-10-04T21:18:33.571Z,84.64
2022-10-04T21:21:00.160Z,84.82
2022-10-04T21:23:32.307Z,85.22
2022-10-04T21:26:18.360Z,84.79
2022-10-04T21:28:44.926Z,86.46
2022-10-04T21:31:11.760Z,85.46
2022-10-04T21:33:38.797Z,85.54
2022-10-04T21:36:06.261Z,85.55
2022-10-04T21:38:32.838Z,85.11
2022-10-04T21:40:59.555Z,85.13
2022-10-04T21:43:26.507Z,83.85
2022-10-04T21:45:53.147Z,83.61
2022-10-04T21:48:19.859Z,84.25
2022-10-04T21:50:46.438Z,85.93
2022-10-04T21:53:13.009Z,84.17
2022-10-04T21:55:39.594Z,84.04
2022-10-04T21:58:06.160Z,83.92
2022-10-04T22:00:32.710Z,84.73
2022-10-04T22:02:59.333Z,84.25
2022-10-04T22:05:26.250Z,83.50
2022-10-04T22:07:52.828Z,83.65
2022-10-04T22:10:19.425Z,82.54
2022-10-04T22:12:46.017Z,83.16
2022-10-04T22:15:12.761Z,86.21
2022-10-04T22:17:39.439Z,85.49
2022-10-04T22:20:06.260Z,83.97
2022-10-04T22:22:36.388Z,84.27
2022-10-04T22:25:17.017Z,85.37
2022-10-04T22:27:44.280Z,84.17
2022-10-04T22:30:31.165Z,84.76
2022-10-04T22:32:59.345Z,83.69
2022-10-04T22:35:30.792Z,84.33
2022-10-04T22:37:57.435Z,83.63
2022-10-04T22:40:25.206Z,85.98
2022-10-04T22:42:54.507Z,85.74
2022-10-04T22:45:27.350Z,87.61
2022-10-04T22:47:57.989Z,88.33
2022-10-04T22:50:36.492Z,87.76
2022-10-04T22:53:16.268Z,87.12
2022-10-04T22:55:42.929Z,86.22
2022-10-04T22:58:18.831Z,86.62
2022-10-04T23:00:45.439Z,86.34
2022-10-04T23:03:32.535Z,86.77
2022-10-04T23:06:00.839Z,85.58
2022-10-04T23:08:28.128Z,85.63
2022-10-04T23:10:56.919Z,84.88
2022-10-04T23:13:25.022Z,85.96
2022-10-04T23:15:52.745Z,86.39
2022-10-04T23:18:19.346Z,85.93
2022-10-04T23:20:55.470Z,86.42
2022-10-04T23:23:22.122Z,87.03
2022-10-04T23:25:48.963Z,86.74
2022-10-04T23:28:17.804Z,86.81
2022-10-04T23:31:00.501Z,87.15
2022-10-04T23:33:27.433Z,85.78
2022-10-04T23:35:54.774Z,87.12
2022-10-04T23:38:23.414Z,86.74
2022-10-04T23:40:50.224Z,86.83
2022-10-04T23:43:24.248Z,86.27
2022-10-04T23:45:52.912Z,87.00
2022-10-04T23:48:24.606Z,86.17
2022-10-04T23:50:56.532Z,87.05
2022-10-04T23:53:25.964Z,85.73
2022-10-04T23:55:55.045Z,85.48
2022-10-04T23:58:25.917Z,86.79
